Time;durP1;ratioP1;P1;durP2;ratioP2;P2;SDS_P1;SDS_P2;PMS_P1;PMS_P2;Temp;Humidity;BMP_temperature;BMP_pressure;BME280_temperature;BME280_humidity;BME280_pressure;Samples;Min_cycle;Max_cycle;Signal;HPM_P1;HPM_P2
2022/01/21 00:00:21;;;;;;;18.73;4.28;;;;;;;0.89;94.84;103400.78;5095164;28;20035;-37
2022/01/21 00:02:46;;;;;;;13.97;3.33;;;;;;;0.96;95.05;103433.16;5094580;28;20036;-37
2022/01/21 00:05:12;;;;;;;13.60;3.27;;;;;;;0.96;95.48;103444.66;5094916;28;20345;-37
2022/01/21 00:07:37;;;;;;;19.50;3.93;;;;;;;0.89;95.44;103434.56;5094711;28;20080;-37
2022/01/21 00:10:05;;;;;;;19.90;4.23;;;;;;;0.97;96.12;103440.19;5094980;28;20039;-37
2022/01/21 00:12:32;;;;;;;14.40;4.10;;;;;;;0.81;95.49;103415.56;5095053;28;20031;-37
2022/01/21 00:14:57;;;;;;;17.77;3.85;;;;;;;0.98;95.89;103428.59;5094563;28;20169;-37
2022/01/21 00:17:24;;;;;;;13.63;3.25;;;;;;;1.00;96.21;103432.00;5094344;28;20107;-37
2022/01/21 00:19:58;;;;;;;;;;;;;;;1.08;95.48;103429.66;5095010;28;20542;-37
2022/01/21 00:30:35;;;;;;;15.93;3.40;;;;;;;0.99;95.87;103433.81;5095261;28;20422;-37
2022/01/21 00:33:00;;;;;;;16.37;3.87;;;;;;;0.91;96.32;103414.81;5092619;28;20044;-37
2022/01/21 00:35:27;;;;;;;10.10;3.67;;;;;;;1.02;96.19;103422.97;5094536;28;20020;-37
2022/01/21 00:37:52;;;;;;;13.40;3.42;;;;;;;1.09;97.47;103427.84;5093851;28;20031;-37
2022/01/21 00:40:22;;;;;;;15.90;3.33;;;;;;;0.99;97.13;103423.16;5093944;28;20518;-37
2022/01/21 00:43:10;;;;;;;14.10;3.25;;;;;;;0.81;96.73;103396.91;5093892;28;20034;-37
2022/01/21 00:45:36;;;;;;;17.73;3.38;;;;;;;0.99;97.38;103428.50;5093826;28;20047;-37
2022/01/21 00:48:01;;;;;;;11.40;3.25;;;;;;;0.88;96.88;103412.38;5093725;28;20455;-37
2022/01/21 00:50:27;;;;;;;11.67;2.60;;;;;;;0.91;97.12;103417.50;5094139;28;20115;-37
2022/01/21 00:52:52;;;;;;;14.93;2.57;;;;;;;0.98;97.87;103426.78;5093741;28;20024;-37
2022/01/21 00:55:18;;;;;;;12.67;2.70;;;;;;;1.01;98.32;103428.38;5094063;28;20040;-37
2022/01/21 00:57:43;;;;;;;11.50;2.87;;;;;;;0.95;98.06;103434.13;5093650;28;20443;-37
2022/01/21 01:00:11;;;;;;;13.63;2.90;;;;;;;0.99;98.26;103440.97;5094421;28;20168;-37
2022/01/21 01:02:37;;;;;;;13.18;3.00;;;;;;;0.93;97.85;103449.38;5093899;28;20436;-37
2022/01/21 01:05:04;;;;;;;9.75;2.25;;;;;;;0.89;97.31;103440.72;5092445;28;20498;-37
2022/01/21 01:07:29;;;;;;;9.73;3.17;;;;;;;0.95;98.09;103452.78;5094124;28;20111;-37
2022/01/21 01:09:57;;;;;;;13.77;3.00;;;;;;;0.92;97.64;103447.66;5093448;28;20498;-37
2022/01/21 01:12:40;;;;;;;10.43;2.75;;;;;;;0.83;98.52;103421.63;5093806;28;20063;-37
2022/01/21 01:20:35;;;;;;;11.27;2.83;;;;;;;0.80;98.19;103443.16;5093685;28;20448;-37
2022/01/21 01:28:49;;;;;;;13.50;2.60;;;;;;;0.78;98.12;103429.94;5050757;28;20059;-37
2022/01/21 01:31:14;;;;;;;12.00;2.80;;;;;;;0.66;97.60;103410.31;5051191;28;20041;-37
2022/01/21 01:33:41;;;;;;;11.57;2.90;;;;;;;0.77;98.23;103422.91;5051045;28;20045;-37
2022/01/21 01:36:08;;;;;;;11.73;2.67;;;;;;;0.75;97.72;103419.50;5051285;28;20394;-37
2022/01/21 01:41:09;;;;;;;11.45;2.13;;;;;;;0.76;98.14;103410.53;5050367;28;20511;-37
2022/01/21 01:51:46;;;;;;;6.70;2.35;;;;;;;0.71;97.86;103418.84;5051106;28;20397;-36
2022/01/21 01:54:15;;;;;;;11.77;2.97;;;;;;;0.72;97.82;103419.69;5053051;28;20036;-36
2022/01/21 01:56:45;;;;;;;14.45;2.60;;;;;;;0.70;97.90;103416.28;5072903;28;20487;-37
2022/01/21 01:59:10;;;;;;;10.48;2.67;;;;;;;0.70;98.49;103422.47;5097592;28;20025;-36
2022/01/21 02:01:36;;;;;;;10.57;2.47;;;;;;;0.72;98.48;103411.69;5096968;28;20035;-37
2022/01/21 02:04:02;;;;;;;9.57;2.17;;;;;;;0.68;98.61;103412.88;5097195;28;20024;-37
2022/01/21 02:06:27;;;;;;;;;;;;;;;0.74;98.05;103418.66;5097222;28;20035;-37
2022/01/21 02:08:53;;;;;;;12.17;2.40;;;;;;;0.66;97.84;103412.13;5097074;28;19908;-37
2022/01/21 02:11:19;;;;;;;12.50;2.40;;;;;;;0.67;97.73;103424.47;5096529;28;20021;-37
2022/01/21 02:13:48;;;;;;;13.25;3.00;;;;;;;0.46;97.78;103389.50;5097572;28;20271;-37
2022/01/21 02:21:33;;;;;;;8.32;2.38;;;;;;;0.60;97.75;103421.38;5096375;28;20522;-37
2022/01/21 02:24:04;;;;;;;14.77;2.10;;;;;;;0.64;98.75;103424.69;5096480;28;20028;-36
2022/01/21 02:26:30;;;;;;;9.45;2.13;;;;;;;0.62;98.67;103423.94;5096735;28;20032;-37
2022/01/21 02:28:56;;;;;;;12.60;2.73;;;;;;;0.62;98.39;103423.94;5096268;28;20055;-37
2022/01/21 02:31:21;;;;;;;12.82;2.80;;;;;;;0.62;98.67;103429.25;5097169;28;20594;-37
2022/01/21 02:33:47;;;;;;;13.52;2.50;;;;;;;0.57;98.00;103416.25;5096318;28;20039;-37
2022/01/21 02:36:13;;;;;;;10.20;2.10;;;;;;;0.61;98.21;103417.75;5096618;28;20024;-36
2022/01/21 02:38:38;;;;;;;4.90;1.70;;;;;;;0.64;98.86;103416.72;5096658;28;20187;-36
2022/01/21 02:41:03;;;;;;;11.27;2.03;;;;;;;0.65;98.67;103413.94;5096257;28;20035;-37
2022/01/21 02:43:29;;;;;;;10.23;2.50;;;;;;;0.65;98.65;103411.28;5096536;28;20028;-36
2022/01/21 02:45:54;;;;;;;12.30;2.70;;;;;;;0.62;98.68;103406.16;5096167;28;20024;-37
2022/01/21 02:48:21;;;;;;;11.30;2.10;;;;;;;0.63;98.43;103414.97;5095843;28;20401;-37
2022/01/21 02:50:47;;;;;;;8.90;2.17;;;;;;;0.56;98.28;103414.56;5096719;28;20035;-37
2022/01/21 02:53:26;;;;;;;8.83;1.90;;;;;;;0.62;98.07;103415.94;5096007;28;20032;-37
2022/01/21 02:55:52;;;;;;;10.18;1.83;;;;;;;0.59;98.74;103422.34;5095978;28;20059;-37
2022/01/21 02:58:17;;;;;;;9.32;1.80;;;;;;;0.64;99.08;103425.56;5095575;28;20063;-36
2022/01/21 03:00:42;;;;;;;19.80;2.80;;;;;;;0.61;98.53;103430.22;5095667;28;20056;-37
2022/01/21 03:03:08;;;;;;;10.63;2.37;;;;;;;0.63;98.96;103429.16;5096242;28;20028;-37
2022/01/21 03:05:39;;;;;;;9.33;1.70;;;;;;;0.65;99.07;103431.72;5095073;28;20024;-37
2022/01/21 03:08:06;;;;;;;8.82;2.08;;;;;;;0.69;99.92;103433.25;5095788;28;20158;-37
2022/01/21 03:10:31;;;;;;;11.13;2.33;;;;;;;0.71;100.00;103436.63;5094650;28;20377;-37
2022/01/21 03:12:56;;;;;;;9.23;2.90;;;;;;;0.70;99.63;103433.13;5095352;28;20049;-37
2022/01/21 03:15:22;;;;;;;12.00;2.93;;;;;;;0.70;99.77;103434.94;5095627;28;20337;-37
2022/01/21 03:17:47;;;;;;;11.63;1.93;;;;;;;0.75;100.00;103430.16;5095451;28;20059;-36
2022/01/21 03:20:12;;;;;;;9.73;1.97;;;;;;;0.61;99.74;103419.56;5095300;28;20028;-37
2022/01/21 03:22:38;;;;;;;8.43;1.77;;;;;;;0.72;99.59;103430.34;5095667;28;20134;-37
2022/01/21 03:25:07;;;;;;;13.00;2.80;;;;;;;0.70;99.87;103437.59;5095949;28;20020;-37
2022/01/21 03:27:33;;;;;;;12.05;2.75;;;;;;;0.48;99.60;103400.88;5095486;28;20081;-37
2022/01/21 03:29:59;;;;;;;9.45;2.30;;;;;;;0.70;99.77;103433.13;5095114;28;20059;-36
2022/01/21 03:32:27;;;;;;;5.17;1.70;;;;;;;0.68;99.55;103443.03;5095656;28;20020;-36
2022/01/21 03:34:52;;;;;;;8.57;1.80;;;;;;;0.65;99.54;103439.72;5095637;28;20271;-37
2022/01/21 03:37:18;;;;;;;12.00;2.83;;;;;;;0.67;99.72;103454.63;5094780;28;20373;-36
2022/01/21 03:39:43;;;;;;;9.43;2.20;;;;;;;0.65;99.75;103442.38;5095845;28;20024;-36
2022/01/21 03:42:08;;;;;;;12.67;2.47;;;;;;;0.65;99.89;103447.72;5095134;28;20110;-37
2022/01/21 03:44:34;;;;;;;10.97;2.50;;;;;;;0.66;99.69;103452.06;5095201;28;20031;-37
2022/01/21 03:47:00;;;;;;;9.77;1.92;;;;;;;0.64;100.00;103454.84;5094991;28;20035;-37
2022/01/21 03:49:28;;;;;;;10.70;2.25;;;;;;;0.64;99.77;103449.53;5095523;28;20039;-37
2022/01/21 03:51:53;;;;;;;15.18;2.45;;;;;;;0.42;100.00;103415.47;5094502;28;20066;-37
2022/01/21 03:54:18;;;;;;;15.53;2.73;;;;;;;0.54;100.00;103442.22;5094177;28;20130;-36
2022/01/21 03:56:44;;;;;;;8.20;1.70;;;;;;;0.55;100.00;103435.97;5094353;28;20031;-36
2022/01/21 03:59:09;;;;;;;12.37;1.90;;;;;;;0.50;100.00;103428.28;5095512;28;20024;-36
2022/01/21 04:01:34;;;;;;;10.07;2.13;;;;;;;0.59;100.00;103442.81;5094882;28;20435;-44
2022/01/21 04:04:00;;;;;;;12.03;2.40;;;;;;;0.56;100.00;103441.19;5094774;28;20047;-36
2022/01/21 04:06:25;;;;;;;9.97;2.13;;;;;;;0.58;100.00;103441.06;5094590;28;20028;-37
2022/01/21 04:08:50;;;;;;;6.57;1.70;;;;;;;0.59;100.00;103450.78;5095059;28;20097;-37
2022/01/21 04:11:16;;;;;;;25.90;2.83;;;;;;;0.56;100.00;103441.19;5094843;28;20121;-37
2022/01/21 04:13:43;;;;;;;11.40;1.80;;;;;;;0.59;100.00;103435.66;5076349;28;20040;-36
2022/01/21 04:16:08;;;;;;;10.98;1.60;;;;;;;0.57;100.00;103445.53;5094431;28;20453;-37
2022/01/21 04:18:34;;;;;;;7.07;2.10;;;;;;;0.62;100.00;103438.09;5094649;28;20081;-37
2022/01/21 04:20:59;;;;;;;9.48;2.15;;;;;;;0.60;100.00;103441.84;5095018;28;20023;-36
2022/01/21 04:23:25;;;;;;;8.48;1.73;;;;;;;0.60;100.00;103439.19;5093883;28;20024;-37
2022/01/21 04:25:51;;;;;;;12.77;2.57;;;;;;;0.50;100.00;103426.47;5093912;28;20464;-37
2022/01/21 04:28:18;;;;;;;11.13;2.30;;;;;;;0.57;100.00;103437.56;5094204;28;20111;-37
2022/01/21 04:30:44;;;;;;;10.63;2.53;;;;;;;0.55;100.00;103449.28;5094696;28;20048;-37
2022/01/21 04:33:10;;;;;;;13.40;1.88;;;;;;;0.56;100.00;103446.50;5094276;28;20032;-37
2022/01/21 04:35:36;;;;;;;6.95;1.60;;;;;;;0.48;100.00;103422.19;5094479;28;20032;-36
2022/01/21 04:38:04;;;;;;;11.77;1.83;;;;;;;0.55;100.00;103435.97;5094219;28;20069;-37
2022/01/21 04:40:34;;;;;;;12.18;1.95;;;;;;;0.54;100.00;103434.22;5093896;28;20073;-37
2022/01/21 04:48:29;;;;;;;8.10;1.65;;;;;;;0.58;100.00;103452.56;5094068;28;20042;-37
2022/01/21 04:53:21;;;;;;;10.65;1.98;;;;;;;0.54;100.00;103445.78;5093379;28;20188;-37
2022/01/21 04:55:47;;;;;;;9.88;2.05;;;;;;;0.55;100.00;103442.13;5094171;28;20376;-37
2022/01/21 04:58:13;;;;;;;8.57;1.88;;;;;;;0.56;100.00;103443.84;5093712;28;20020;-36
2022/01/21 05:00:38;;;;;;;6.53;1.98;;;;;;;0.50;100.00;103422.97;5093906;28;20453;-37
2022/01/21 05:03:04;;;;;;;8.40;1.97;;;;;;;0.52;100.00;103418.38;5091999;28;20040;-37
2022/01/21 05:05:29;;;;;;;10.47;1.63;;;;;;;0.54;100.00;103427.13;5094176;28;20036;-37
2022/01/21 05:07:55;;;;;;;8.13;1.63;;;;;;;0.50;100.00;103413.16;5093517;28;20749;-36
2022/01/21 05:10:23;;;;;;;;;;;;;;;0.60;100.00;103425.88;5093860;28;20039;-37
2022/01/21 05:12:49;;;;;;;7.63;1.70;;;;;;;0.55;100.00;103428.81;5093614;28;20209;-37
2022/01/21 05:16:00;;;;;;;9.23;2.30;;;;;;;0.59;100.00;103425.00;5093175;28;20043;-36
2022/01/21 05:18:06;;;;;;;8.35;1.70;;;;;;;0.61;100.00;103428.41;5090881;28;20040;-36
2022/01/21 05:20:31;;;;;;;9.40;1.87;;;;;;;0.61;100.00;103441.72;5093827;28;20032;-37
2022/01/21 05:22:56;;;;;;;8.50;1.83;;;;;;;0.62;100.00;103431.94;5093475;28;20031;-37
2022/01/21 05:25:22;;;;;;;8.00;1.63;;;;;;;0.58;100.00;103439.25;5091940;28;20023;-37
2022/01/21 05:27:50;;;;;;;6.95;2.58;;;;;;;0.57;100.00;103437.56;5092482;28;20051;-37
2022/01/21 05:30:17;;;;;;;10.73;2.25;;;;;;;0.57;100.00;103439.38;5093554;28;20082;-37
2022/01/21 05:32:43;;;;;;;7.80;1.75;;;;;;;0.56;100.00;103435.84;5093135;28;20044;-36
2022/01/21 05:35:08;;;;;;;12.85;1.98;;;;;;;0.49;100.00;103426.59;5093603;28;20032;-36
2022/01/21 05:37:35;;;;;;;6.13;1.20;;;;;;;0.49;100.00;103432.75;5093123;28;20035;-37
2022/01/21 05:40:06;;;;;;;10.23;1.90;;;;;;;0.55;100.00;103439.47;5093277;28;20024;-36
2022/01/21 05:42:36;;;;;;;9.13;2.00;;;;;;;0.52;100.00;103435.19;5093164;28;20024;-36
2022/01/21 05:47:30;;;;;;;10.98;2.38;;;;;;;0.35;100.00;103413.31;5092937;28;20032;-36
2022/01/21 05:49:56;;;;;;;7.00;1.70;;;;;;;0.51;100.00;103437.97;5093029;28;20047;-36
2022/01/21 05:52:29;;;;;;;9.53;2.00;;;;;;;0.51;100.00;103440.63;5092938;28;20020;-36
2022/01/21 05:54:55;;;;;;;6.97;1.40;;;;;;;0.50;100.00;103447.78;5092823;28;20540;-37
2022/01/21 05:57:20;;;;;;;11.93;1.83;;;;;;;0.50;100.00;103446.91;5092895;28;20120;-37
2022/01/21 05:59:46;;;;;;;7.43;1.90;;;;;;;0.30;100.00;103410.97;5093143;28;20107;-37
2022/01/21 06:02:12;;;;;;;9.70;1.67;;;;;;;0.44;100.00;103437.53;5092868;28;20035;-37
2022/01/21 06:04:39;;;;;;;5.22;1.52;;;;;;;0.42;100.00;103442.09;5092949;28;20051;-37
2022/01/21 06:07:06;;;;;;;11.88;1.92;;;;;;;0.46;100.00;103446.25;5092780;28;20036;-37
2022/01/21 06:09:31;;;;;;;7.80;1.60;;;;;;;0.23;100.00;103407.84;5093832;28;20024;-36
2022/01/21 06:11:57;;;;;;;9.23;1.90;;;;;;;0.46;100.00;103440.94;5092397;28;20487;-37
2022/01/21 06:14:24;;;;;;;6.23;1.53;;;;;;;0.45;100.00;103446.38;5093287;28;20250;-37
2022/01/21 06:16:50;;;;;;;9.15;1.73;;;;;;;0.57;100.00;103453.53;5092680;28;20043;-37
2022/01/21 06:19:15;;;;;;;8.27;1.60;;;;;;;0.56;100.00;103457.16;5093286;28;20032;-37
2022/01/21 06:21:40;;;;;;;9.23;2.07;;;;;;;0.50;100.00;103457.56;5092700;28;20383;-37
2022/01/21 06:24:06;;;;;;;8.83;1.97;;;;;;;0.35;100.00;103430.16;5092940;28;20129;-37
2022/01/21 06:26:31;;;;;;;7.63;1.80;;;;;;;0.54;100.00;103469.72;5092580;28;20025;-36
2022/01/21 06:28:57;;;;;;;13.27;2.33;;;;;;;0.57;100.00;103480.16;5093101;28;20557;-37
2022/01/21 06:31:23;;;;;;;4.70;1.90;;;;;;;0.58;100.00;103476.53;5093015;28;20054;-37
2022/01/21 06:33:48;;;;;;;11.30;2.10;;;;;;;0.62;100.00;103478.03;5093363;28;20050;-37
2022/01/21 06:36:14;;;;;;;8.80;1.63;;;;;;;0.62;100.00;103466.53;5092985;28;20028;-36
2022/01/21 06:38:39;;;;;;;8.57;2.60;;;;;;;0.71;100.00;103484.56;5092214;28;20402;-37
2022/01/21 06:41:04;;;;;;;14.77;2.10;;;;;;;0.61;100.00;103475.50;5096357;28;20032;-37
2022/01/21 06:43:30;;;;;;;7.50;2.20;;;;;;;0.79;100.00;103494.75;5096021;28;20020;-37
2022/01/21 06:45:56;;;;;;;12.25;2.00;;;;;;;0.66;100.00;103492.88;5095918;28;20031;-37
2022/01/21 06:48:21;;;;;;;10.23;2.63;;;;;;;0.84;100.00;103496.13;5096179;28;20081;-37
2022/01/21 06:50:46;;;;;;;14.10;2.37;;;;;;;0.83;100.00;103497.09;5096171;28;20031;-37
2022/01/21 06:53:12;;;;;;;10.43;2.53;;;;;;;0.78;100.00;103480.53;5095960;28;20057;-37
2022/01/21 06:55:37;;;;;;;7.20;2.33;;;;;;;0.88;100.00;103505.63;5096101;28;20024;-37
2022/01/21 06:58:06;;;;;;;10.57;2.13;;;;;;;0.83;100.00;103481.13;5096029;28;20028;-37
2022/01/21 07:00:32;;;;;;;8.20;2.20;;;;;;;1.00;100.00;103503.94;5096228;28;20051;-37
2022/01/21 07:02:57;;;;;;;9.82;2.28;;;;;;;0.96;100.00;103513.94;5095945;28;20028;-37
2022/01/21 07:05:25;;;;;;;6.55;2.08;;;;;;;0.89;100.00;103495.81;5095736;28;20035;-37
2022/01/21 07:07:50;;;;;;;10.18;2.80;;;;;;;1.00;100.00;103510.13;5095472;28;20024;-37
2022/01/21 07:10:16;;;;;;;7.63;2.50;;;;;;;0.90;100.00;103492.19;5096053;28;20020;-37
2022/01/21 07:12:44;;;;;;;13.93;3.40;;;;;;;1.00;100.00;103512.78;5095281;28;20157;-37
2022/01/21 07:15:12;;;;;;;6.72;2.58;;;;;;;1.00;100.00;103517.28;5095497;28;20042;-37
2022/01/21 07:17:37;;;;;;;12.68;3.13;;;;;;;0.91;100.00;103508.06;5095184;28;20030;-37
2022/01/21 07:20:04;;;;;;;11.07;3.20;;;;;;;1.00;100.00;103530.59;5095343;28;20594;-36
2022/01/21 07:22:31;;;;;;;8.70;2.92;;;;;;;1.02;100.00;103528.66;5095370;28;20028;-36
2022/01/21 07:24:56;;;;;;;8.15;2.92;;;;;;;1.07;100.00;103537.22;5095812;28;20028;-36
2022/01/21 07:27:22;;;;;;;9.32;3.28;;;;;;;1.05;100.00;103532.94;5095434;28;20089;-36
2022/01/21 07:29:47;;;;;;;10.50;3.00;;;;;;;0.97;100.00;103520.13;5095563;28;20050;-36
2022/01/21 07:32:12;;;;;;;8.80;3.17;;;;;;;1.05;100.00;103543.63;5093768;28;20374;-36
2022/01/21 07:34:38;;;;;;;7.87;3.17;;;;;;;0.99;100.00;103540.41;5095564;28;20490;-36
2022/01/21 07:37:03;;;;;;;13.97;3.80;;;;;;;1.03;100.00;103549.91;5095371;28;20032;-36
2022/01/21 07:39:29;;;;;;;8.87;3.10;;;;;;;0.95;100.00;103536.22;5095511;28;20028;-36
2022/01/21 07:41:54;;;;;;;14.15;3.90;;;;;;;1.04;100.00;103542.75;5095079;28;20128;-36
2022/01/21 07:44:20;;;;;;;12.35;4.35;;;;;;;1.06;100.00;103530.16;5094058;28;20119;-36
2022/01/21 07:46:46;;;;;;;9.20;3.13;;;;;;;1.06;100.00;103524.84;5095038;28;20028;-36
2022/01/21 07:49:14;;;;;;;10.13;3.35;;;;;;;1.04;100.00;103508.13;5095050;28;20365;-36
2022/01/21 07:51:41;;;;;;;14.73;3.80;;;;;;;1.11;100.00;103528.06;5094678;28;20360;-36
2022/01/21 07:54:07;;;;;;;10.70;3.88;;;;;;;1.16;100.00;103541.06;5094660;28;20119;-36
2022/01/21 07:56:33;;;;;;;10.27;3.47;;;;;;;1.15;100.00;103529.56;5095069;28;20106;-36
2022/01/21 07:59:00;;;;;;;15.70;4.40;;;;;;;1.16;100.00;103514.41;5095586;28;20033;-36
2022/01/21 08:01:26;;;;;;;16.08;4.07;;;;;;;1.18;100.00;103507.19;5095009;28;20028;-36
2022/01/21 08:03:52;;;;;;;13.68;3.47;;;;;;;1.22;100.00;103512.22;5094363;28;20028;-36
2022/01/21 08:06:17;;;;;;;13.73;3.70;;;;;;;1.24;100.00;103514.75;5094976;28;20058;-36
2022/01/21 08:08:42;;;;;;;8.20;3.37;;;;;;;1.28;100.00;103505.59;5094750;28;20103;-36
2022/01/21 08:11:08;;;;;;;11.57;4.33;;;;;;;1.21;100.00;103494.47;5094978;28;20468;-36
2022/01/21 08:13:33;;;;;;;11.30;2.87;;;;;;;1.33;100.00;103506.13;5094780;28;20042;-36
2022/01/21 08:15:59;;;;;;;13.67;3.70;;;;;;;1.40;100.00;103499.41;5094297;28;20107;-36
2022/01/21 08:18:24;;;;;;;8.93;2.75;;;;;;;1.42;100.00;103500.16;5094117;28;20441;-36
2022/01/21 08:20:50;;;;;;;10.03;3.10;;;;;;;1.48;100.00;103497.06;5094596;28;20024;-36
2022/01/21 08:23:15;;;;;;;12.17;3.23;;;;;;;1.46;100.00;103480.31;5094091;28;20063;-36
2022/01/21 08:25:41;;;;;;;8.93;2.77;;;;;;;1.41;100.00;103474.44;5094472;28;20524;-36
2022/01/21 08:28:06;;;;;;;8.43;2.73;;;;;;;1.45;100.00;103481.28;5093794;28;20377;-36
2022/01/21 08:30:32;;;;;;;13.50;3.55;;;;;;;1.34;100.00;103467.84;5094731;28;20075;-37
2022/01/21 08:32:57;;;;;;;12.30;3.45;;;;;;;1.42;100.00;103497.50;5094304;28;20028;-36
2022/01/21 08:35:23;;;;;;;11.50;3.43;;;;;;;1.49;100.00;103511.25;5094379;28;20052;-36
2022/01/21 08:37:52;;;;;;;13.53;2.80;;;;;;;1.53;100.00;103523.44;5094131;28;20035;-36
2022/01/21 08:40:18;;;;;;;12.38;2.67;;;;;;;1.44;100.00;103503.56;5094377;28;20024;-36
2022/01/21 08:42:43;;;;;;;10.43;2.70;;;;;;;1.57;100.00;103513.41;5093770;28;20502;-36
2022/01/21 08:45:11;;;;;;;8.17;2.60;;;;;;;1.62;100.00;103511.28;5093443;28;20043;-36
2022/01/21 08:47:36;;;;;;;10.38;2.80;;;;;;;1.54;100.00;103503.78;5093985;28;20032;-36
2022/01/21 08:50:06;;;;;;;9.63;2.67;;;;;;;1.64;100.00;103512.84;5093959;28;20034;-36
2022/01/21 08:52:36;;;;;;;7.00;2.70;;;;;;;1.65;100.00;103509.22;5094161;28;20258;-36
2022/01/21 08:55:01;;;;;;;11.70;3.03;;;;;;;1.68;100.00;103517.03;5094121;28;20028;-36
2022/01/21 08:57:26;;;;;;;6.57;2.45;;;;;;;1.74;100.00;103527.25;5093799;28;20073;-35
2022/01/21 08:59:52;;;;;;;5.37;2.43;;;;;;;1.68;100.00;103521.50;5094369;28;20031;-36
2022/01/21 09:02:18;;;;;;;12.70;3.47;;;;;;;1.71;100.00;103513.31;5093596;28;20067;-36
2022/01/21 09:04:44;;;;;;;9.85;2.80;;;;;;;1.75;100.00;103512.94;5093319;28;20069;-36
2022/01/21 09:07:09;;;;;;;10.85;2.42;;;;;;;1.89;100.00;103497.78;5093637;28;20032;-36
2022/01/21 09:09:35;;;;;;;7.00;2.23;;;;;;;1.94;100.00;103495.63;5094074;28;20032;-36
2022/01/21 09:12:00;;;;;;;10.80;2.40;;;;;;;1.92;100.00;103492.25;5093526;28;20115;-36
2022/01/21 09:14:30;;;;;;;4.90;2.03;;;;;;;2.08;100.00;103500.00;5093787;28;20449;-35
2022/01/21 09:16:57;;;;;;;15.48;2.50;;;;;;;2.05;100.00;103474.38;5094081;28;20398;-36
2022/01/21 09:19:24;;;;;;;9.38;2.60;;;;;;;2.21;100.00;103493.66;5093166;28;20039;-36
2022/01/21 09:21:51;;;;;;;11.88;3.45;;;;;;;2.31;100.00;103485.84;5093998;28;20052;-36
2022/01/21 09:24:18;;;;;;;8.63;2.45;;;;;;;2.36;100.00;103491.69;5093985;28;20028;-36
2022/01/21 09:26:44;;;;;;;6.90;1.98;;;;;;;2.47;100.00;103485.56;5091565;28;20463;-36
2022/01/21 09:29:10;;;;;;;9.45;2.95;;;;;;;2.51;100.00;103482.53;5093234;28;20075;-36
2022/01/21 09:31:35;;;;;;;7.17;2.10;;;;;;;2.44;100.00;103469.75;5094014;28;20040;-36
2022/01/21 09:34:01;;;;;;;9.68;2.78;;;;;;;2.65;100.00;103500.22;5093966;28;20024;-36
2022/01/21 09:36:27;;;;;;;9.82;2.30;;;;;;;2.64;100.00;103505.69;5093481;28;20062;-36
2022/01/21 09:38:52;;;;;;;11.37;2.70;;;;;;;2.66;100.00;103498.41;5092953;28;20461;-36
2022/01/21 09:41:18;;;;;;;10.87;2.90;;;;;;;2.74;100.00;103507.56;5093824;28;20088;-36
2022/01/21 09:43:48;;;;;;;9.43;2.67;;;;;;;2.74;100.00;103486.19;5093035;28;20074;-36
2022/01/21 09:46:14;;;;;;;7.95;2.13;;;;;;;2.82;99.82;103502.47;5093083;28;20016;-36
2022/01/21 09:48:53;;;;;;;9.18;2.85;;;;;;;2.89;99.94;103505.56;5092712;28;20135;-36
2022/01/21 09:51:18;;;;;;;11.40;2.67;;;;;;;2.94;99.38;103505.22;5092991;28;20120;-36
2022/01/21 09:53:44;;;;;;;13.70;3.08;;;;;;;3.04;100.00;103517.75;5093059;28;20103;-36
2022/01/21 09:56:11;;;;;;;9.55;3.03;;;;;;;3.09;99.48;103522.75;5092723;28;20024;-36
2022/01/21 09:58:40;;;;;;;7.75;2.25;;;;;;;3.14;99.07;103520.59;5092638;28;20507;-36
2022/01/21 10:01:06;;;;;;;10.57;2.63;;;;;;;3.15;98.62;103521.44;5092933;28;20035;-36
2022/01/21 10:03:32;;;;;;;;;;;;;;;3.25;98.59;103527.78;5093264;28;20161;-36
2022/01/21 10:05:57;;;;;;;10.13;2.40;;;;;;;3.20;98.80;103524.63;5093100;28;20010;-36
2022/01/21 10:08:24;;;;;;;8.80;2.30;;;;;;;3.30;98.11;103537.16;5092619;28;20024;-36
2022/01/21 10:10:50;;;;;;;14.10;2.85;;;;;;;3.33;97.51;103538.75;5092389;28;20328;-36
2022/01/21 10:13:18;;;;;;;6.50;2.20;;;;;;;3.33;97.43;103534.25;5093298;28;20475;-36
2022/01/21 10:15:44;;;;;;;12.10;2.55;;;;;;;3.51;97.61;103548.03;5096677;28;20364;-37
2022/01/21 10:18:21;;;;;;;12.43;2.17;;;;;;;3.57;96.74;103549.41;5096940;28;20036;-37
2022/01/21 10:20:58;;;;;;;9.23;2.97;;;;;;;3.54;96.37;103542.44;5097576;28;20035;-36
2022/01/21 10:23:25;;;;;;;8.70;2.05;;;;;;;3.64;96.84;103550.59;5096480;28;20031;-36
2022/01/21 10:26:05;;;;;;;9.63;2.83;;;;;;;3.75;96.34;103549.78;5096803;28;20020;-36
2022/01/21 10:28:33;;;;;;;9.80;2.33;;;;;;;3.91;96.32;103550.28;5096949;28;20028;-36
2022/01/21 10:31:04;;;;;;;7.55;2.08;;;;;;;3.98;95.80;103554.16;5096928;28;20054;-36
2022/01/21 10:33:29;;;;;;;9.52;2.00;;;;;;;4.03;95.59;103553.81;5096539;28;20036;-36
2022/01/21 10:36:12;;;;;;;8.43;2.30;;;;;;;4.04;96.01;103552.81;5097074;28;20027;-36
2022/01/21 10:38:43;;;;;;;9.45;1.95;;;;;;;3.92;95.67;103543.09;5097278;28;20028;-36
2022/01/21 10:41:13;;;;;;;10.05;2.10;;;;;;;4.00;95.13;103560.28;5096974;28;20036;-36
2022/01/21 10:43:38;;;;;;;7.93;1.90;;;;;;;4.00;95.85;103543.31;5096046;28;20492;-36
2022/01/21 10:46:04;;;;;;;12.23;2.03;;;;;;;3.96;95.70;103548.09;5096870;28;20038;-36
2022/01/21 10:48:32;;;;;;;13.00;2.40;;;;;;;4.05;95.15;103555.41;5096235;28;20020;-36
2022/01/21 10:51:17;;;;;;;8.48;1.92;;;;;;;4.16;96.09;103556.38;5096541;28;20051;-36
2022/01/21 10:53:43;;;;;;;9.95;2.03;;;;;;;4.16;96.53;103559.03;5096140;28;20032;-36
2022/01/21 10:56:12;;;;;;;14.77;2.70;;;;;;;4.05;97.16;103539.34;5096414;28;20388;-36
2022/01/21 10:58:40;;;;;;;9.25;2.22;;;;;;;4.08;97.02;103546.25;5095704;28;20035;-36
2022/01/21 11:01:12;;;;;;;11.43;2.25;;;;;;;4.05;97.71;103535.78;5096747;28;20040;-36
2022/01/21 11:04:00;;;;;;;14.50;2.80;;;;;;;4.04;98.68;103542.13;5096520;28;20054;-36
2022/01/21 11:06:29;;;;;;;9.25;2.70;;;;;;;3.96;98.88;103517.81;5095885;28;20146;-36
2022/01/21 11:09:24;;;;;;;11.90;2.50;;;;;;;4.11;99.56;103527.28;5095981;28;20380;-36
2022/01/21 11:12:09;;;;;;;10.20;2.28;;;;;;;4.19;99.42;103519.47;5095975;28;20028;-36
2022/01/21 11:14:36;;;;;;;15.07;2.63;;;;;;;4.28;98.76;103518.72;5096013;28;20535;-36
2022/01/21 11:17:08;;;;;;;;;;;;;;;4.39;99.28;103521.41;5096303;28;20020;-36
2022/01/21 11:19:35;;;;;;;11.52;3.15;;;;;;;4.44;99.70;103517.47;5095551;28;19966;-36
2022/01/21 11:22:04;;;;;;;13.02;2.72;;;;;;;4.43;99.38;103508.56;5095965;28;20079;-36
2022/01/21 11:24:29;;;;;;;14.45;2.92;;;;;;;4.45;99.69;103497.75;5095431;28;20032;-36
2022/01/21 11:27:12;;;;;;;13.27;2.90;;;;;;;4.44;99.47;103493.34;5093588;28;20043;-36
2022/01/21 11:29:38;;;;;;;13.98;3.92;;;;;;;4.25;99.54;103468.09;5095177;28;20115;-36
2022/01/21 11:32:03;;;;;;;;;;;;;;;4.46;99.12;103488.75;5095651;28;20119;-36
2022/01/21 11:34:30;;;;;;;11.20;2.90;;;;;;;4.41;99.61;103493.63;5095572;28;19997;-36
2022/01/21 11:36:56;;;;;;;13.68;3.00;;;;;;;4.31;99.67;103480.97;5094988;28;20440;-36
2022/01/21 11:39:24;;;;;;;14.30;2.83;;;;;;;4.37;99.71;103507.25;5095387;28;20028;-36
2022/01/21 11:41:54;;;;;;;11.93;2.50;;;;;;;4.38;99.59;103505.44;5095043;28;20034;-36
2022/01/21 11:44:22;;;;;;;12.77;2.92;;;;;;;4.30;99.86;103489.16;5095740;28;20032;-36
2022/01/21 11:47:13;;;;;;;10.23;2.67;;;;;;;4.41;100.00;103501.66;5095270;28;20035;-36
2022/01/21 11:49:41;;;;;;;17.08;3.45;;;;;;;4.47;100.00;103493.97;5095258;28;20032;-36
2022/01/21 11:52:16;;;;;;;12.48;2.92;;;;;;;4.45;99.73;103481.69;5095435;28;20028;-36
2022/01/21 11:54:42;;;;;;;15.35;2.85;;;;;;;4.58;100.00;103482.34;5095445;28;20036;-36
2022/01/21 11:57:11;;;;;;;17.45;4.18;;;;;;;4.54;99.72;103476.41;5095071;28;20028;-36
2022/01/21 11:59:43;;;;;;;12.90;3.65;;;;;;;4.59;99.87;103476.88;5095633;28;20111;-36
2022/01/21 12:02:15;;;;;;;13.10;2.10;;;;;;;4.70;99.75;103478.66;5094507;28;20089;-36
2022/01/21 12:04:47;;;;;;;13.73;2.90;;;;;;;4.80;99.89;103486.78;5094834;28;20115;-36
2022/01/21 12:07:55;;;;;;;16.70;3.35;;;;;;;4.81;98.58;103472.41;5094669;28;20024;-36
2022/01/21 12:10:23;;;;;;;9.90;2.45;;;;;;;4.80;98.98;103470.69;5093904;28;20032;-36
2022/01/21 12:12:57;;;;;;;10.43;2.42;;;;;;;4.83;99.57;103465.94;5094686;28;20032;-36